SWA1715 KFLL-KMCO
Flight info
| Callsign | SWA1715 |
|---|---|
| Flight time | N/A |
| Altitude | 22000 |
| Route | FRSBE2 WAPOM RIDES2 |
| Aircraft | B738/M-SDE2E3FGHIRWXY/LB1 |
Departure
| Time | 2026-05-06 01:27 |
|---|---|
| Airport | Fort Lauderdale Hollywood International Airport (KFLL) |
Arrival
| Time | N/A |
|---|---|
| Airport | Orlando International Airport (KMCO) |
| Time | Latitude | Longitude | Altitude | Speed | Heading |
|---|---|---|---|---|---|
| 2026-05-06 00:58 | 26.07415 | -80.13785 | 9 ft | 0 kts | 243° |
| 2026-05-06 01:13 | 26.07420 | -80.13773 | 9 ft | 2 kts | 243° |
| 2026-05-06 01:13 | 26.07427 | -80.13759 | 9 ft | 2 kts | 243° |
| 2026-05-06 01:14 | 26.07415 | -80.13734 | 9 ft | 1 kts | 354° |
| 2026-05-06 01:14 | 26.07409 | -80.13735 | 9 ft | 1 kts | 7° |
| 2026-05-06 01:14 | 26.07406 | -80.13735 | 9 ft | 0 kts | 3° |
| 2026-05-06 01:16 | 26.07441 | -80.13732 | 9 ft | 10 kts | 7° |
| 2026-05-06 01:16 | 26.07506 | -80.13735 | 9 ft | 9 kts | 316° |
| 2026-05-06 01:16 | 26.07517 | -80.13802 | 9 ft | 11 kts | 271° |
| 2026-05-06 01:17 | 26.07544 | -80.13911 | 9 ft | 14 kts | 292° |
| 2026-05-06 01:17 | 26.07557 | -80.14018 | 9 ft | 13 kts | 270° |
| 2026-05-06 01:17 | 26.07557 | -80.14120 | 9 ft | 12 kts | 270° |
| 2026-05-06 01:17 | 26.07558 | -80.14214 | 9 ft | 11 kts | 270° |
| 2026-05-06 01:18 | 26.07558 | -80.14302 | 9 ft | 10 kts | 271° |
| 2026-05-06 01:18 | 26.07559 | -80.14398 | 9 ft | 14 kts | 271° |
| 2026-05-06 01:18 | 26.07560 | -80.14517 | 9 ft | 15 kts | 271° |
| 2026-05-06 01:18 | 26.07561 | -80.14629 | 9 ft | 14 kts | 271° |
| 2026-05-06 01:19 | 26.07562 | -80.14735 | 9 ft | 13 kts | 270° |
| 2026-05-06 01:19 | 26.07563 | -80.14835 | 9 ft | 12 kts | 270° |
| 2026-05-06 01:19 | 26.07563 | -80.14926 | 9 ft | 11 kts | 270° |
| 2026-05-06 01:19 | 26.07564 | -80.15015 | 9 ft | 12 kts | 271° |
| 2026-05-06 01:20 | 26.07564 | -80.15110 | 9 ft | 12 kts | 270° |
| 2026-05-06 01:20 | 26.07564 | -80.15208 | 9 ft | 13 kts | 270° |
| 2026-05-06 01:20 | 26.07564 | -80.15308 | 9 ft | 12 kts | 270° |
| 2026-05-06 01:20 | 26.07565 | -80.15404 | 9 ft | 13 kts | 271° |
| 2026-05-06 01:21 | 26.07566 | -80.15515 | 9 ft | 14 kts | 270° |
| 2026-05-06 01:21 | 26.07566 | -80.15624 | 9 ft | 13 kts | 270° |
| 2026-05-06 01:21 | 26.07567 | -80.15728 | 9 ft | 13 kts | 270° |
| 2026-05-06 01:21 | 26.07567 | -80.15842 | 9 ft | 15 kts | 270° |
| 2026-05-06 01:22 | 26.07568 | -80.15964 | 9 ft | 16 kts | 270° |
| 2026-05-06 01:22 | 26.07569 | -80.16093 | 9 ft | 17 kts | 270° |
| 2026-05-06 01:22 | 26.07570 | -80.16222 | 9 ft | 16 kts | 270° |
| 2026-05-06 01:22 | 26.07570 | -80.16345 | 9 ft | 15 kts | 270° |
| 2026-05-06 01:23 | 26.07571 | -80.16463 | 9 ft | 14 kts | 270° |
| 2026-05-06 01:23 | 26.07572 | -80.16572 | 9 ft | 13 kts | 270° |
| 2026-05-06 01:23 | 26.07597 | -80.16637 | 9 ft | 0 kts | 332° |
| 2026-05-06 01:26 | 26.07634 | -80.16644 | 9 ft | 10 kts | 4° |
| 2026-05-06 01:26 | 26.07692 | -80.16612 | 9 ft | 9 kts | 78° |
| 2026-05-06 01:26 | 26.07694 | -80.16460 | 9 ft | 52 kts | 89° |
| 2026-05-06 01:26 | 26.07693 | -80.15710 | 9 ft | 137 kts | 90° |
| 2026-05-06 01:27 | 26.07680 | -80.14439 | 313 ft | 180 kts | 89° |
| 2026-05-06 01:27 | 26.07657 | -80.13039 | 1263 ft | 183 kts | 86° |
| 2026-05-06 01:27 | 26.07721 | -80.11645 | 2014 ft | 190 kts | 84° |
| 2026-05-06 01:27 | 26.07847 | -80.10107 | 2588 ft | 210 kts | 79° |
| 2026-05-06 01:28 | 26.08306 | -80.08488 | 3220 ft | 230 kts | 63° |
| 2026-05-06 01:28 | 26.09370 | -80.07104 | 3936 ft | 247 kts | 34° |
| 2026-05-06 01:28 | 26.10964 | -80.06294 | 4700 ft | 262 kts | 19° |
| 2026-05-06 01:28 | 26.12715 | -80.05633 | 5605 ft | 272 kts | 18° |
| 2026-05-06 01:29 | 26.14514 | -80.05027 | 6548 ft | 277 kts | 11° |
| 2026-05-06 01:29 | 26.16428 | -80.04898 | 7570 ft | 277 kts | 349° |
| 2026-05-06 01:29 | 26.18277 | -80.05472 | 8559 ft | 278 kts | 338° |
| 2026-05-06 01:29 | 26.20056 | -80.06256 | 9525 ft | 279 kts | 333° |
| 2026-05-06 01:30 | 26.21692 | -80.07431 | 10394 ft | 283 kts | 317° |
| 2026-05-06 01:30 | 26.23003 | -80.09100 | 11028 ft | 296 kts | 302° |
| 2026-05-06 01:30 | 26.23943 | -80.11217 | 11682 ft | 309 kts | 292° |
| 2026-05-06 01:30 | 26.24695 | -80.13381 | 12440 ft | 308 kts | 292° |
| 2026-05-06 01:31 | 26.25505 | -80.15555 | 12682 ft | 307 kts | 295° |
| 2026-05-06 01:31 | 26.26489 | -80.17703 | 12722 ft | 313 kts | 301° |
| 2026-05-06 01:31 | 26.27675 | -80.19769 | 12540 ft | 326 kts | 305° |
| 2026-05-06 01:31 | 26.28816 | -80.22074 | 11857 ft | 355 kts | 291° |
| 2026-05-06 01:32 | 26.29343 | -80.24859 | 11130 ft | 378 kts | 275° |
| 2026-05-06 01:32 | 26.29322 | -80.27834 | 10291 ft | 396 kts | 268° |
| 2026-05-06 01:32 | 26.29071 | -80.30898 | 9978 ft | 394 kts | 265° |
| 2026-05-06 01:32 | 26.28763 | -80.33871 | 10027 ft | 374 kts | 265° |
| 2026-05-06 01:33 | 26.28460 | -80.36681 | 10028 ft | 356 kts | 265° |
| 2026-05-06 01:33 | 26.28082 | -80.39352 | 9991 ft | 345 kts | 258° |
| 2026-05-06 01:33 | 26.27127 | -80.41760 | 9890 ft | 339 kts | 239° |
| 2026-05-06 01:33 | 26.25531 | -80.43662 | 9807 ft | 336 kts | 220° |
| 2026-05-06 01:34 | 26.23460 | -80.44859 | 9738 ft | 335 kts | 201° |
| 2026-05-06 01:34 | 26.21160 | -80.45232 | 9653 ft | 333 kts | 183° |
| 2026-05-06 01:34 | 26.18841 | -80.45062 | 9589 ft | 330 kts | 176° |
| 2026-05-06 01:34 | 26.16583 | -80.44756 | 9520 ft | 327 kts | 175° |
| 2026-05-06 01:35 | 26.14341 | -80.44428 | 9461 ft | 323 kts | 175° |
| 2026-05-06 01:35 | 26.12112 | -80.44099 | 9412 ft | 320 kts | 175° |
| 2026-05-06 01:35 | 26.09899 | -80.43770 | 9356 ft | 318 kts | 175° |
| 2026-05-06 01:35 | 26.07702 | -80.43444 | 9302 ft | 317 kts | 175° |
| 2026-05-06 01:36 | 26.05497 | -80.43118 | 9253 ft | 313 kts | 174° |
| 2026-05-06 01:36 | 26.03438 | -80.42754 | 9019 ft | 293 kts | 173° |
| 2026-05-06 01:36 | 26.01462 | -80.42389 | 8672 ft | 279 kts | 173° |
| 2026-05-06 01:36 | 25.99580 | -80.42040 | 8421 ft | 263 kts | 173° |
| 2026-05-06 01:37 | 25.97816 | -80.41717 | 8184 ft | 250 kts | 173° |
| 2026-05-06 01:37 | 25.96160 | -80.41625 | 8011 ft | 232 kts | 195° |
| 2026-05-06 01:37 | 25.94844 | -80.42477 | 7798 ft | 212 kts | 237° |
| 2026-05-06 01:37 | 25.94338 | -80.43924 | 7631 ft | 194 kts | 262° |
| 2026-05-06 01:38 | 25.94132 | -80.45373 | 7429 ft | 185 kts | 263° |
| 2026-05-06 01:38 | 25.93941 | -80.46780 | 7126 ft | 183 kts | 263° |
| 2026-05-06 01:38 | 25.93757 | -80.48161 | 6789 ft | 183 kts | 264° |
| 2026-05-06 01:38 | 25.93940 | -80.49529 | 6452 ft | 182 kts | 304° |
| 2026-05-06 01:39 | 25.94960 | -80.50314 | 6098 ft | 183 kts | 348° |
| 2026-05-06 01:39 | 25.96230 | -80.50502 | 5819 ft | 182 kts | 354° |
| 2026-05-06 01:39 | 25.97482 | -80.50658 | 5549 ft | 181 kts | 353° |
| 2026-05-06 01:39 | 25.98739 | -80.50634 | 5228 ft | 181 kts | 21° |
| 2026-05-06 01:40 | 25.99699 | -80.49761 | 4941 ft | 180 kts | 52° |
| 2026-05-06 01:40 | 26.00443 | -80.48659 | 4682 ft | 178 kts | 51° |
| 2026-05-06 01:40 | 26.01275 | -80.47636 | 4404 ft | 177 kts | 47° |
| 2026-05-06 01:40 | 26.02111 | -80.46647 | 4142 ft | 176 kts | 48° |
| 2026-05-06 01:41 | 26.02916 | -80.45650 | 3977 ft | 167 kts | 49° |
| 2026-05-06 01:41 | 26.03645 | -80.44725 | 3945 ft | 151 kts | 49° |
| 2026-05-06 01:41 | 26.04357 | -80.43820 | 3562 ft | 160 kts | 49° |
| 2026-05-06 01:41 | 26.05102 | -80.42878 | 3190 ft | 167 kts | 49° |
| 2026-05-06 01:42 | 26.05867 | -80.41908 | 2976 ft | 162 kts | 50° |
| 2026-05-06 01:42 | 26.06560 | -80.41005 | 2981 ft | 151 kts | 65° |